createdAt,value
2022-08-05T00:01:29.064Z,98032.50
2022-08-05T00:03:57.006Z,98028.84
2022-08-05T00:06:27.910Z,98033.69
2022-08-05T00:09:00.696Z,98025.97
2022-08-05T00:11:34.668Z,98026.13
2022-08-05T00:14:11.986Z,98027.16
2022-08-05T00:16:52.421Z,98020.34
2022-08-05T00:19:21.587Z,98026.44
2022-08-05T00:21:49.607Z,98023.34
2022-08-05T00:24:23.270Z,98019.47
2022-08-05T00:26:53.124Z,98024.72
2022-08-05T00:29:22.817Z,98021.00
2022-08-05T00:32:12.180Z,98021.03
2022-08-05T00:34:55.707Z,98019.50
2022-08-05T00:37:35.887Z,98017.53
2022-08-05T00:40:17.671Z,98016.66
2022-08-05T00:42:49.168Z,98012.44
2022-08-05T00:45:17.109Z,98009.84
2022-08-05T00:47:56.424Z,98010.47
2022-08-05T00:50:25.706Z,98014.50
2022-08-05T00:52:55.296Z,98013.03
2022-08-05T00:55:42.143Z,98016.63
2022-08-05T00:58:13.981Z,98013.31
2022-08-05T01:00:42.046Z,98012.75
2022-08-05T01:03:12.628Z,98006.31
2022-08-05T01:05:51.227Z,97998.78
2022-08-05T01:08:40.804Z,98006.75
2022-08-05T01:11:14.169Z,98003.81
2022-08-05T01:14:01.410Z,98014.50
2022-08-05T01:16:30.512Z,98013.81
2022-08-05T01:19:07.333Z,98002.47
2022-08-05T01:21:50.511Z,98007.03
2022-08-05T01:24:35.949Z,98009.69
2022-08-05T01:27:50.482Z,98012.00
2022-08-05T01:30:34.707Z,97997.78
2022-08-05T01:33:06.283Z,98003.16
2022-08-05T01:35:51.111Z,98012.16
2022-08-05T01:38:24.878Z,98013.03
2022-08-05T01:40:58.901Z,98006.81
2022-08-05T01:43:27.391Z,98011.44
2022-08-05T01:45:56.619Z,98006.94
2022-08-05T01:48:25.532Z,98010.13
2022-08-05T01:50:55.703Z,98009.19
2022-08-05T01:53:54.519Z,98013.22
2022-08-05T01:56:11.826Z,98003.63
2022-08-05T01:58:40.934Z,98007.62
2022-08-05T02:01:13.902Z,98011.37
2022-08-05T02:03:45.757Z,98009.38
2022-08-05T02:06:37.095Z,98003.81
2022-08-05T02:09:00.091Z,98005.19
2022-08-05T02:11:52.677Z,98004.44
2022-08-05T02:14:32.887Z,98000.75
2022-08-05T02:17:16.824Z,98002.66
2022-08-05T02:20:01.392Z,98005.88
2022-08-05T02:22:35.062Z,97999.50
2022-08-05T02:25:23.088Z,98001.81
2022-08-05T02:27:58.950Z,98003.06
2022-08-05T02:30:34.598Z,97999.88
2022-08-05T02:33:02.914Z,97995.94
2022-08-05T02:35:33.051Z,98000.06
2022-08-05T02:38:04.715Z,97999.38
2022-08-05T02:40:31.955Z,97994.78
2022-08-05T02:42:59.302Z,97990.19
2022-08-05T02:45:27.146Z,97998.78
2022-08-05T02:48:06.878Z,97994.41
2022-08-05T02:50:44.066Z,97979.44
2022-08-05T02:53:19.208Z,97994.13
2022-08-05T02:55:54.066Z,97984.06
2022-08-05T02:58:23.223Z,97975.03
2022-08-05T03:00:56.041Z,97980.72
2022-08-05T03:03:23.768Z,97969.69
2022-08-05T03:06:56.562Z,97986.72
2022-08-05T03:08:42.618Z,97974.28
2022-08-05T03:11:54.823Z,97969.59
2022-08-05T03:14:13.499Z,97969.00
2022-08-05T03:16:40.913Z,97964.72
2022-08-05T03:19:17.357Z,97966.81
2022-08-05T03:21:55.171Z,97964.50
2022-08-05T03:24:29.679Z,97975.66
2022-08-05T03:26:59.290Z,97971.72
2022-08-05T03:29:44.718Z,97960.91
2022-08-05T03:32:14.462Z,97964.38
2022-08-05T03:34:51.047Z,97965.72
2022-08-05T03:37:18.649Z,97969.44
2022-08-05T03:40:01.670Z,97974.16
2022-08-05T03:42:32.346Z,97967.44
2022-08-05T03:45:01.824Z,97975.97
2022-08-05T03:47:47.430Z,97971.97
2022-08-05T03:50:16.291Z,97971.31
2022-08-05T03:55:51.363Z,97974.97
2022-08-05T03:56:05.325Z,97978.34
2022-08-05T03:58:36.383Z,97970.31
2022-08-05T04:01:05.352Z,97967.53
2022-08-05T04:03:37.988Z,97973.09
2022-08-05T04:06:08.682Z,97969.81
2022-08-05T04:08:37.036Z,97972.75
2022-08-05T04:11:08.462Z,97979.50
2022-08-05T04:13:49.660Z,97976.78
2022-08-05T04:16:24.349Z,97979.72
2022-08-05T04:18:54.219Z,97981.31
2022-08-05T04:22:08.789Z,97982.53
2022-08-05T04:24:19.576Z,97977.41
2022-08-05T04:26:49.906Z,97986.97
2022-08-05T04:29:17.198Z,97981.44
2022-08-05T04:31:44.091Z,97983.59
2022-08-05T04:34:19.616Z,97976.44
2022-08-05T04:36:59.095Z,97977.09
2022-08-05T04:39:27.921Z,97978.91
2022-08-05T04:41:55.430Z,97981.47
2022-08-05T04:44:29.627Z,97984.44
2022-08-05T04:47:08.806Z,97982.03
2022-08-05T04:49:38.523Z,97975.16
2022-08-05T04:52:24.380Z,97976.91
2022-08-05T04:54:57.163Z,97977.69
2022-08-05T04:57:28.729Z,97984.06
2022-08-05T04:59:58.531Z,97983.72
2022-08-05T05:02:41.306Z,97986.38
2022-08-05T05:05:16.995Z,97980.53
2022-08-05T05:08:01.594Z,97977.69
2022-08-05T05:10:33.683Z,97989.97
2022-08-05T05:13:04.147Z,97983.56
2022-08-05T05:15:57.847Z,97978.66
2022-08-05T05:18:28.362Z,97983.16
2022-08-05T05:20:58.751Z,97985.38
2022-08-05T05:23:25.762Z,97984.13
2022-08-05T05:25:52.759Z,97992.06
2022-08-05T05:28:19.676Z,97994.50
2022-08-05T05:30:49.554Z,97989.00
2022-08-05T05:33:17.551Z,97993.62
2022-08-05T05:35:45.870Z,98000.66
2022-08-05T05:38:14.268Z,97999.00
2022-08-05T05:40:49.708Z,97995.22
2022-08-05T05:43:27.497Z,97991.75
2022-08-05T05:45:55.202Z,98000.84
2022-08-05T05:48:27.329Z,98004.59
2022-08-05T05:50:54.742Z,97989.41
2022-08-05T05:53:22.767Z,97997.03
2022-08-05T05:55:52.075Z,97990.88
2022-08-05T05:58:32.068Z,97990.66
2022-08-05T06:01:12.753Z,97990.84
2022-08-05T06:04:00.903Z,97980.78
2022-08-05T06:06:31.067Z,97988.37
2022-08-05T06:09:00.521Z,97986.53
2022-08-05T06:11:28.810Z,97987.31
2022-08-05T06:13:56.427Z,97980.13
2022-08-05T06:16:30.748Z,97982.09
2022-08-05T06:19:01.887Z,97979.38
2022-08-05T06:21:37.658Z,97991.06
2022-08-05T06:24:11.434Z,97993.28
2022-08-05T06:26:51.451Z,97989.19
2022-08-05T06:29:25.126Z,97989.37
2022-08-05T06:32:25.493Z,97990.28
2022-08-05T06:34:57.195Z,97986.09
2022-08-05T06:37:56.037Z,97993.53
2022-08-05T06:40:14.080Z,97989.84
2022-08-05T06:42:45.871Z,97992.78
2022-08-05T06:45:20.808Z,97986.75
2022-08-05T06:48:12.019Z,97989.03
2022-08-05T06:50:35.576Z,97989.44
2022-08-05T06:53:11.294Z,97983.78
2022-08-05T06:55:41.968Z,97990.97
2022-08-05T06:58:19.770Z,97995.56
2022-08-05T07:01:00.795Z,97992.94
2022-08-05T07:03:32.870Z,97989.41
2022-08-05T07:06:05.955Z,97991.03
2022-08-05T07:08:47.892Z,98000.47
2022-08-05T07:11:22.269Z,97995.25
2022-08-05T07:14:15.434Z,97990.47
2022-08-05T07:17:56.464Z,97994.69
2022-08-05T07:22:27.716Z,97985.53
2022-08-05T07:24:57.604Z,97986.88
2022-08-05T07:27:25.197Z,97986.81
2022-08-05T07:30:22.802Z,97980.72
2022-08-05T07:32:44.182Z,97987.47
2022-08-05T07:36:02.437Z,97987.22
2022-08-05T07:38:04.935Z,97983.72
2022-08-05T07:40:33.303Z,97979.94
2022-08-05T07:43:04.910Z,97978.84
2022-08-05T07:45:57.526Z,97980.47
2022-08-05T07:49:02.347Z,97975.56
2022-08-05T07:51:23.334Z,97983.28
2022-08-05T07:53:59.472Z,97979.00
2022-08-05T07:56:59.952Z,97978.97
2022-08-05T07:59:15.984Z,97986.72
2022-08-05T08:01:52.121Z,97977.38
2022-08-05T08:04:37.521Z,97980.25
2022-08-05T08:07:07.331Z,97979.63
2022-08-05T08:09:35.057Z,97977.16
2022-08-05T08:12:11.455Z,97970.12
2022-08-05T08:14:47.357Z,97966.13
2022-08-05T08:17:16.230Z,97975.03
2022-08-05T08:20:21.241Z,97974.59
2022-08-05T08:22:34.594Z,97974.16
2022-08-05T08:25:02.856Z,97975.91
2022-08-05T08:27:40.088Z,97982.66
2022-08-05T08:30:29.879Z,97980.47
2022-08-05T08:33:02.508Z,97972.34
2022-08-05T08:35:35.002Z,97979.31
2022-08-05T08:38:08.115Z,97983.88
2022-08-05T08:40:35.978Z,97974.88
2022-08-05T08:43:21.296Z,97974.81
2022-08-05T08:45:53.462Z,97981.03
2022-08-05T08:48:22.597Z,97978.44
2022-08-05T08:51:54.561Z,97981.87
2022-08-05T08:53:55.302Z,97980.87
2022-08-05T08:56:27.117Z,97982.84
2022-08-05T08:58:54.365Z,97980.69
2022-08-05T09:01:21.592Z,97968.59
2022-08-05T09:03:58.291Z,97969.62
2022-08-05T09:06:29.672Z,97979.31
2022-08-05T09:08:59.724Z,97979.88
2022-08-05T09:11:51.524Z,97973.56
2022-08-05T09:14:56.298Z,97972.44
2022-08-05T09:17:02.537Z,97973.91
2022-08-05T09:19:36.837Z,97969.09
2022-08-05T09:22:30.869Z,97970.22
2022-08-05T09:25:24.035Z,97980.09
2022-08-05T09:28:05.293Z,97979.53
2022-08-05T09:30:34.658Z,97978.38
2022-08-05T09:33:02.463Z,97966.56
2022-08-05T09:35:31.680Z,97967.84
2022-08-05T09:38:16.853Z,97966.81
2022-08-05T09:40:53.892Z,97972.78
2022-08-05T09:43:40.804Z,97969.41
2022-08-05T09:46:28.433Z,97958.19
2022-08-05T09:49:07.637Z,97958.22
2022-08-05T09:51:49.519Z,97959.16
2022-08-05T09:54:21.375Z,97959.06
2022-08-05T09:56:57.652Z,97952.13
2022-08-05T09:59:28.375Z,97951.31
2022-08-05T10:01:57.703Z,97950.81
2022-08-05T10:04:36.033Z,97954.59
2022-08-05T10:07:19.505Z,97949.66
2022-08-05T10:10:14.640Z,97950.28
2022-08-05T10:12:52.346Z,97946.72
2022-08-05T10:15:23.002Z,97944.47
2022-08-05T10:18:23.076Z,97943.69
2022-08-05T10:21:08.343Z,97939.09
2022-08-05T10:23:59.634Z,97940.41
2022-08-05T10:26:32.750Z,97937.72
2022-08-05T10:29:00.902Z,97931.47
2022-08-05T10:32:53.045Z,97927.44
2022-08-05T10:34:14.871Z,97926.38
2022-08-05T10:36:44.295Z,97929.72
2022-08-05T10:39:59.005Z,97921.78
2022-08-05T10:42:32.587Z,97906.09
2022-08-05T10:45:02.293Z,97918.84
2022-08-05T10:48:29.717Z,97915.66
2022-08-05T10:51:21.686Z,97913.22
2022-08-05T10:53:58.508Z,97918.25
2022-08-05T10:56:30.322Z,97903.78
2022-08-05T10:59:11.483Z,97903.94
2022-08-05T11:01:54.689Z,97913.16
2022-08-05T11:04:30.967Z,97901.81
2022-08-05T11:07:00.631Z,97907.22
2022-08-05T11:09:45.605Z,97901.81
2022-08-05T11:12:41.389Z,97904.50
2022-08-05T11:15:20.331Z,97900.62
2022-08-05T11:17:57.401Z,97899.19
2022-08-05T11:20:46.200Z,97897.72
2022-08-05T11:24:03.913Z,97893.00
2022-08-05T11:26:32.167Z,97898.56
2022-08-05T11:29:11.957Z,97897.44
2022-08-05T11:31:58.661Z,97886.31
2022-08-05T11:34:51.998Z,97895.75
2022-08-05T11:38:37.400Z,97891.56
2022-08-05T11:41:12.843Z,97883.25
2022-08-05T11:44:06.328Z,97892.19
2022-08-05T11:47:09.537Z,97883.00
2022-08-05T11:49:34.529Z,97888.91
2022-08-05T11:52:11.555Z,97889.53
2022-08-05T11:54:41.277Z,97893.84
2022-08-05T11:57:24.785Z,97890.41
2022-08-05T11:59:53.260Z,97886.25
2022-08-05T12:02:31.367Z,97893.62
2022-08-05T12:05:07.219Z,97890.31
2022-08-05T12:08:08.962Z,97894.88
2022-08-05T12:10:43.416Z,97877.56
2022-08-05T12:13:17.078Z,97894.16
2022-08-05T12:15:49.709Z,97876.94
2022-08-05T12:18:20.572Z,97879.59
2022-08-05T12:20:51.252Z,97882.84
2022-08-05T12:23:18.303Z,97885.94
2022-08-05T12:25:53.795Z,97881.22
2022-08-05T12:28:37.127Z,97881.97
2022-08-05T12:31:05.359Z,97890.69
2022-08-05T12:33:36.492Z,97880.22
2022-08-05T12:36:09.494Z,97883.84
2022-08-05T12:38:39.620Z,97869.19
2022-08-05T12:41:13.786Z,97873.25
2022-08-05T12:43:58.798Z,97875.31
2022-08-05T12:46:31.413Z,97868.41
2022-08-05T12:49:15.355Z,97873.78
2022-08-05T12:52:12.389Z,97865.88
2022-08-05T12:54:46.865Z,97856.19
2022-08-05T12:57:17.101Z,97853.59
2022-08-05T13:01:58.387Z,97858.41
2022-08-05T13:02:43.269Z,97853.47
2022-08-05T13:05:14.908Z,97853.66
2022-08-05T13:08:00.660Z,97851.31
2022-08-05T13:10:28.642Z,97846.22
2022-08-05T13:12:58.072Z,97834.13
2022-08-05T13:15:41.428Z,97840.00
2022-08-05T13:18:18.894Z,97843.75
2022-08-05T13:20:49.181Z,97802.94
2022-08-05T13:23:18.270Z,97833.94
2022-08-05T13:25:52.764Z,97825.47
2022-08-05T13:28:27.497Z,97815.22
2022-08-05T13:30:54.445Z,97823.78
2022-08-05T13:34:22.502Z,97818.41
2022-08-05T13:36:09.659Z,97823.97
2022-08-05T13:38:38.508Z,97819.81
2022-08-05T13:41:10.779Z,97817.12
2022-08-05T13:43:44.021Z,97813.72
2022-08-05T13:46:50.839Z,97813.84
2022-08-05T13:49:10.206Z,97811.06
2022-08-05T13:51:40.848Z,97813.94
2022-08-05T13:54:12.352Z,97809.62
2022-08-05T13:56:45.558Z,97795.28
2022-08-05T13:59:20.436Z,97806.34
2022-08-05T14:01:58.166Z,97797.34
2022-08-05T14:04:51.638Z,97797.19
2022-08-05T14:07:59.498Z,97801.75
2022-08-05T14:10:28.373Z,97788.13
2022-08-05T14:12:57.210Z,97791.72
2022-08-05T14:16:07.236Z,97791.75
2022-08-05T14:18:15.125Z,97787.38
2022-08-05T14:20:48.028Z,97783.13
2022-08-05T14:23:23.931Z,97780.91
2022-08-05T14:25:58.262Z,97787.97
2022-08-05T14:28:30.189Z,97778.75
2022-08-05T14:30:58.238Z,97767.50
2022-08-05T14:33:25.618Z,97773.34
2022-08-05T14:35:54.422Z,97767.25
2022-08-05T14:38:32.506Z,97771.94
2022-08-05T14:41:06.393Z,97765.75
2022-08-05T14:43:57.646Z,97762.88
2022-08-05T14:46:28.357Z,97769.25
2022-08-05T14:48:57.997Z,97759.75
2022-08-05T14:51:30.877Z,97760.87
2022-08-05T14:54:26.748Z,97758.59
2022-08-05T14:56:46.753Z,97764.62
2022-08-05T14:59:14.694Z,97749.22
2022-08-05T15:01:48.987Z,97751.69
2022-08-05T15:04:20.465Z,97751.34
2022-08-05T15:06:49.145Z,97759.25
2022-08-05T15:09:52.849Z,97753.25
2022-08-05T15:12:08.978Z,97748.84
2022-08-05T15:14:42.195Z,97757.06
2022-08-05T15:17:45.737Z,97747.63
2022-08-05T15:20:04.286Z,97750.84
2022-08-05T15:22:31.216Z,97755.44
2022-08-05T15:24:59.372Z,97738.44
2022-08-05T15:27:26.691Z,97753.53
2022-08-05T15:30:04.029Z,97746.81
2022-08-05T15:32:30.980Z,97745.94
2022-08-05T15:34:58.774Z,97747.72
2022-08-05T15:38:31.899Z,97753.19
2022-08-05T15:41:00.732Z,97745.25
2022-08-05T15:43:12.592Z,97750.56
2022-08-05T15:45:46.929Z,97752.97
2022-08-05T15:48:15.149Z,97746.38
2022-08-05T15:50:43.572Z,97745.56
2022-08-05T15:53:12.954Z,97734.03
2022-08-05T15:56:02.183Z,97745.31
2022-08-05T15:58:35.789Z,97738.91
2022-08-05T16:01:16.274Z,97742.66
2022-08-05T16:03:48.134Z,97727.38
2022-08-05T16:06:20.262Z,97739.72
2022-08-05T16:08:51.300Z,97735.38
2022-08-05T16:11:42.521Z,97738.00
2022-08-05T16:14:09.265Z,97746.00
2022-08-05T16:16:36.468Z,97746.13
2022-08-05T16:19:04.241Z,97755.34
2022-08-05T16:21:58.449Z,97742.44
2022-08-05T16:24:41.131Z,97740.88
2022-08-05T16:27:05.339Z,97735.50
2022-08-05T16:29:37.355Z,97735.56
2022-08-05T16:32:06.692Z,97742.34
2022-08-05T16:34:41.805Z,97746.22
2022-08-05T16:38:15.172Z,97741.91
2022-08-05T16:40:05.086Z,97735.59
2022-08-05T16:42:34.556Z,97742.88
2022-08-05T16:45:02.047Z,97739.47
2022-08-05T16:47:53.397Z,97744.75
2022-08-05T16:50:22.661Z,97732.78
2022-08-05T16:52:49.593Z,97744.69
2022-08-05T16:55:16.765Z,97747.75
2022-08-05T16:58:00.120Z,97740.81
2022-08-05T17:00:34.847Z,97739.66
2022-08-05T17:03:09.326Z,97738.84
2022-08-05T17:05:51.773Z,97735.16
2022-08-05T17:08:36.763Z,97738.66
2022-08-05T17:11:08.808Z,97734.56
2022-08-05T17:13:41.477Z,97733.97
2022-08-05T17:16:28.000Z,97743.25
2022-08-05T17:18:56.408Z,97747.28
2022-08-05T17:21:23.793Z,97745.97
2022-08-05T17:24:05.653Z,97741.25
2022-08-05T17:26:39.240Z,97736.78
2022-08-05T17:29:09.834Z,97733.16
2022-08-05T17:31:41.497Z,97739.09
2022-08-05T17:34:30.252Z,97738.44
2022-08-05T17:37:00.457Z,97739.50
2022-08-05T17:39:33.938Z,97743.72
2022-08-05T17:42:19.842Z,97741.84
2022-08-05T17:44:50.283Z,97744.94
2022-08-05T17:47:22.454Z,97750.22
2022-08-05T17:49:59.984Z,97748.16
2022-08-05T17:52:32.175Z,97753.00
2022-08-05T17:54:59.512Z,97751.59
2022-08-05T17:57:27.663Z,97749.31
2022-08-05T18:00:03.761Z,97756.66
2022-08-05T18:02:35.932Z,97754.38
2022-08-05T18:05:06.998Z,97759.16
2022-08-05T18:07:41.963Z,97751.72
2022-08-05T18:10:11.522Z,97756.78
2022-08-05T18:12:41.142Z,97753.19
2022-08-05T18:15:08.989Z,97758.47
2022-08-05T18:17:58.889Z,97756.94
2022-08-05T18:20:29.609Z,97757.94
2022-08-05T18:23:00.663Z,97761.34
2022-08-05T18:25:39.058Z,97753.44
2022-08-05T18:28:07.006Z,97762.91
2022-08-05T18:30:39.101Z,97762.69
2022-08-05T18:33:07.591Z,97754.88
2022-08-05T18:35:59.899Z,97759.16
2022-08-05T18:38:26.217Z,97767.78
2022-08-05T18:41:53.616Z,97767.87
2022-08-05T18:43:42.753Z,97770.00
2022-08-05T18:46:10.329Z,97768.56
2022-08-05T18:48:41.578Z,97769.28
2022-08-05T18:52:03.975Z,97773.56
2022-08-05T18:54:15.167Z,97762.88
2022-08-05T18:56:51.311Z,97778.44
2022-08-05T18:59:44.060Z,97776.63
2022-08-05T19:02:18.456Z,97772.97
2022-08-05T19:05:01.639Z,97770.56
2022-08-05T19:07:46.372Z,97773.44
2022-08-05T19:10:14.950Z,97772.28
2022-08-05T19:12:43.179Z,97773.41
2022-08-05T19:15:54.703Z,97777.72
2022-08-05T19:18:08.084Z,97777.50
2022-08-05T19:20:37.269Z,97773.53
2022-08-05T19:23:08.834Z,97775.59
2022-08-05T19:26:01.074Z,97771.91
2022-08-05T19:28:29.538Z,97776.44
2022-08-05T19:30:56.926Z,97780.28
2022-08-05T19:33:35.887Z,97781.88
2022-08-05T19:36:06.152Z,97777.06
2022-08-05T19:38:35.604Z,97778.22
2022-08-05T19:41:06.853Z,97775.06
2022-08-05T19:44:06.192Z,97780.84
2022-08-05T19:46:30.038Z,97780.59
2022-08-05T19:49:04.015Z,97782.59
2022-08-05T19:51:37.909Z,97778.75
2022-08-05T19:54:29.395Z,97772.09
2022-08-05T19:56:59.417Z,97776.59
2022-08-05T19:59:59.391Z,97782.78
2022-08-05T20:02:15.095Z,97774.87
2022-08-05T20:04:45.832Z,97776.37
2022-08-05T20:07:14.045Z,97783.91
2022-08-05T20:09:54.143Z,97781.34
2022-08-05T20:12:23.403Z,97789.63
2022-08-05T20:14:52.220Z,97790.22
2022-08-05T20:17:19.956Z,97797.22
2022-08-05T20:19:51.009Z,97791.63
2022-08-05T20:22:24.361Z,97794.62
2022-08-05T20:24:53.977Z,97795.91
2022-08-05T20:27:26.479Z,97785.94
2022-08-05T20:29:58.396Z,97783.28
2022-08-05T20:32:27.564Z,97789.66
2022-08-05T20:34:55.009Z,97789.84
2022-08-05T20:38:04.835Z,97791.47
2022-08-05T20:40:10.132Z,97786.16
2022-08-05T20:42:37.204Z,97798.75
2022-08-05T20:45:05.501Z,97796.34
2022-08-05T20:47:33.394Z,97792.50
2022-08-05T20:50:02.279Z,97789.00
2022-08-05T20:52:29.800Z,97790.84
2022-08-05T20:55:15.728Z,97795.00
2022-08-05T20:57:44.974Z,97790.47
2022-08-05T21:00:40.789Z,97796.44
2022-08-05T21:03:06.145Z,97796.44
2022-08-05T21:05:47.556Z,97804.13
2022-08-05T21:08:26.690Z,97798.13
2022-08-05T21:11:00.500Z,97800.28
2022-08-05T21:13:55.841Z,97800.06
2022-08-05T21:16:19.412Z,97793.44
2022-08-05T21:18:46.372Z,97800.59
2022-08-05T21:21:14.664Z,97793.34
2022-08-05T21:23:42.671Z,97798.75
2022-08-05T21:26:14.244Z,97797.97
2022-08-05T21:28:47.934Z,97803.88
2022-08-05T21:31:17.632Z,97806.37
2022-08-05T21:33:47.697Z,97808.00
2022-08-05T21:36:27.679Z,97806.16
2022-08-05T21:38:57.128Z,97804.09
2022-08-05T21:41:26.167Z,97808.75
2022-08-05T21:44:03.522Z,97804.81
2022-08-05T21:46:34.568Z,97806.03
2022-08-05T21:49:04.649Z,97801.16
2022-08-05T21:52:22.826Z,97799.56
2022-08-05T21:54:27.805Z,97801.09
2022-08-05T21:57:29.181Z,97802.84
2022-08-05T22:00:02.035Z,97804.44
2022-08-05T22:02:31.089Z,97803.63
2022-08-05T22:04:58.816Z,97808.75
2022-08-05T22:07:40.144Z,97811.06
2022-08-05T22:10:14.804Z,97811.88
2022-08-05T22:12:44.932Z,97811.69
2022-08-05T22:15:56.465Z,97806.25
2022-08-05T22:18:06.279Z,97804.69
2022-08-05T22:20:35.725Z,97807.56
2022-08-05T22:23:24.734Z,97797.72
2022-08-05T22:26:30.102Z,97808.13
2022-08-05T22:28:57.051Z,97816.00
2022-08-05T22:31:30.106Z,97805.09
2022-08-05T22:34:01.583Z,97808.19
2022-08-05T22:36:29.475Z,97803.19
2022-08-05T22:38:57.002Z,97800.19
2022-08-05T22:42:11.592Z,97806.22
2022-08-05T22:44:19.121Z,97811.28
2022-08-05T22:46:46.280Z,97811.50
2022-08-05T22:50:18.410Z,97809.91
2022-08-05T22:52:04.424Z,97804.41
2022-08-05T22:54:35.811Z,97800.84
2022-08-05T22:57:04.438Z,97802.25
2022-08-05T22:59:43.663Z,97794.06
2022-08-05T23:02:16.576Z,97795.84
2022-08-05T23:04:58.090Z,97797.38
2022-08-05T23:07:30.367Z,97796.34
2022-08-05T23:10:01.578Z,97800.09
2022-08-05T23:12:32.825Z,97797.50
2022-08-05T23:15:08.930Z,97796.47
2022-08-05T23:17:59.827Z,97803.16
2022-08-05T23:20:24.370Z,97803.66
2022-08-05T23:22:55.689Z,97803.44
2022-08-05T23:25:53.523Z,97806.69
2022-08-05T23:28:11.285Z,97803.59
2022-08-05T23:30:40.007Z,97805.59
2022-08-05T23:33:21.851Z,97800.91
2022-08-05T23:35:56.136Z,97803.31
2022-08-05T23:38:24.504Z,97800.19
2022-08-05T23:40:52.797Z,97795.84
2022-08-05T23:43:24.797Z,97802.31
2022-08-05T23:46:03.634Z,97798.47
2022-08-05T23:48:30.557Z,97801.41
2022-08-05T23:50:58.580Z,97797.94
2022-08-05T23:53:28.375Z,97799.00
2022-08-05T23:55:55.686Z,97801.59
2022-08-05T23:58:31.758Z,97794.69
